Time;durP1;ratioP1;P1;durP2;ratioP2;P2;SDS_P1;SDS_P2;PMS_P1;PMS_P2;Temp;Humidity;BMP_temperature;BMP_pressure;BME280_temperature;BME280_humidity;BME280_pressure;Samples;Min_cycle;Max_cycle;Signal;HPM_P1;HPM_P2
2024/03/10 00:00:20;;;;;;;2.92;1.58;;;;;;;;;;5092782;28;20016;-66
2024/03/10 00:02:46;;;;;;;2.58;1.48;;;;;;;;;;5092657;28;20042;-66
2024/03/10 00:05:15;;;;;;;1.95;1.30;;;;;;;;;;5092048;28;20358;-66
2024/03/10 00:07:41;;;;;;;3.80;1.83;;;;;;;;;;5092731;28;20020;-67
2024/03/10 00:10:08;;;;;;;5.45;1.95;;;;;;;;;;5096026;28;20028;-66
2024/03/10 00:12:34;;;;;;;5.28;1.83;;;;;;;;;;5092693;28;20016;-67
2024/03/10 00:14:59;;;;;;;4.65;1.80;;;;;;;;;;5091399;28;20469;-67
2024/03/10 00:17:25;;;;;;;3.85;1.60;;;;;;;;;;5103060;28;20052;-66
2024/03/10 00:19:52;;;;;;;4.82;1.60;;;;;;;;;;5111829;28;20031;-67
2024/03/10 00:22:17;;;;;;;4.85;1.70;;;;;;;;;;5112575;28;20291;-67
2024/03/10 00:24:43;;;;;;;4.75;1.50;;;;;;;;;;5096942;28;20099;-68
2024/03/10 00:27:08;;;;;;;5.43;1.48;;;;;;;;;;5098074;28;20573;-67
2024/03/10 00:29:34;;;;;;;4.85;1.40;;;;;;;;;;5112963;28;20337;-67
2024/03/10 00:31:59;;;;;;;4.55;1.40;;;;;;;;;;5107227;28;20016;-66
2024/03/10 00:34:25;;;;;;;3.17;1.67;;;;;;;;;;5112653;27;20067;-70
2024/03/10 00:36:50;;;;;;;4.43;1.70;;;;;;;;;;5107965;28;20020;-71
2024/03/10 00:39:15;;;;;;;3.50;1.45;;;;;;;;;;5091367;28;20131;-70
2024/03/10 00:41:41;;;;;;;4.05;1.75;;;;;;;;;;5091807;28;20089;-70
2024/03/10 00:44:06;;;;;;;3.47;1.50;;;;;;;;;;5074357;28;20024;-69
2024/03/10 00:46:31;;;;;;;6.32;1.63;;;;;;;;;;5092475;28;20024;-70
2024/03/10 00:48:58;;;;;;;4.57;1.70;;;;;;;;;;5112076;28;20054;-71
2024/03/10 00:51:24;;;;;;;4.13;1.67;;;;;;;;;;5109680;28;20011;-71
2024/03/10 00:53:50;;;;;;;8.77;1.85;;;;;;;;;;5092749;28;20047;-70
2024/03/10 00:56:19;;;;;;;4.57;1.75;;;;;;;;;;5093069;28;20499;-70
2024/03/10 00:58:45;;;;;;;5.72;2.03;;;;;;;;;;5109529;28;20020;-67
2024/03/10 01:01:11;;;;;;;5.53;2.10;;;;;;;;;;5111824;28;20031;-68
2024/03/10 01:03:37;;;;;;;5.68;2.03;;;;;;;;;;5111874;28;20061;-70
2024/03/10 01:06:03;;;;;;;6.57;2.08;;;;;;;;;;5098812;28;20015;-68
2024/03/10 01:08:29;;;;;;;5.05;2.20;;;;;;;;;;5090480;28;20028;-67
2024/03/10 01:10:54;;;;;;;5.43;1.88;;;;;;;;;;5090651;28;20031;-69
2024/03/10 01:13:20;;;;;;;5.47;2.15;;;;;;;;;;5090449;28;20829;-69
2024/03/10 01:15:45;;;;;;;5.07;1.88;;;;;;;;;;5091052;28;20057;-69
2024/03/10 01:18:10;;;;;;;3.60;1.70;;;;;;;;;;5106603;28;20028;-69
2024/03/10 01:20:36;;;;;;;8.18;1.95;;;;;;;;;;5107786;28;20358;-69
2024/03/10 01:23:03;;;;;;;3.72;1.65;;;;;;;;;;5074183;28;20241;-67
2024/03/10 01:25:28;;;;;;;4.45;1.50;;;;;;;;;;5094205;28;20019;-68
2024/03/10 01:27:53;;;;;;;5.68;1.77;;;;;;;;;;5110194;28;20339;-70
2024/03/10 01:30:20;;;;;;;3.15;1.55;;;;;;;;;;5112514;28;20034;-69
2024/03/10 01:32:46;;;;;;;4.55;1.80;;;;;;;;;;5111502;28;20311;-69
2024/03/10 01:35:11;;;;;;;2.67;1.70;;;;;;;;;;5111114;28;20034;-68
2024/03/10 01:37:38;;;;;;;4.80;1.90;;;;;;;;;;5109195;28;20027;-68
2024/03/10 01:40:04;;;;;;;4.93;1.90;;;;;;;;;;5112531;28;20039;-69
2024/03/10 01:42:30;;;;;;;3.65;1.98;;;;;;;;;;5112970;28;20414;-70
2024/03/10 01:44:56;;;;;;;6.78;1.88;;;;;;;;;;5097987;28;20108;-70
2024/03/10 01:47:21;;;;;;;3.70;1.85;;;;;;;;;;5105270;28;20459;-69
2024/03/10 01:49:47;;;;;;;6.20;2.08;;;;;;;;;;5115423;28;20016;-70
2024/03/10 01:52:12;;;;;;;4.93;2.17;;;;;;;;;;5114599;28;20378;-69
2024/03/10 01:54:38;;;;;;;5.07;1.77;;;;;;;;;;5114875;28;20054;-68
2024/03/10 01:57:04;;;;;;;5.97;2.10;;;;;;;;;;5107240;28;20110;-67
2024/03/10 01:59:31;;;;;;;4.22;1.80;;;;;;;;;;5106384;28;20038;-68
2024/03/10 02:01:58;;;;;;;5.78;2.30;;;;;;;;;;5101475;28;20035;-69
2024/03/10 02:04:23;;;;;;;5.60;1.92;;;;;;;;;;5093859;28;20811;-68
2024/03/10 02:06:50;;;;;;;4.97;2.20;;;;;;;;;;5100333;28;20111;-68
2024/03/10 02:09:18;;;;;;;3.78;1.85;;;;;;;;;;5104297;28;20076;-70
2024/03/10 02:11:44;;;;;;;3.08;1.73;;;;;;;;;;5094763;28;20439;-69
2024/03/10 02:14:10;;;;;;;5.85;2.10;;;;;;;;;;5094936;28;20027;-68
2024/03/10 02:16:35;;;;;;;4.13;1.88;;;;;;;;;;5076623;28;20107;-70
2024/03/10 02:19:01;;;;;;;3.50;1.90;;;;;;;;;;5100752;28;20023;-66
2024/03/10 02:21:27;;;;;;;3.55;1.48;;;;;;;;;;5109319;28;20101;-65
2024/03/10 02:24:12;;;;;;;4.55;1.60;;;;;;;;;;5093707;28;20103;-68
2024/03/10 02:26:41;;;;;;;1.85;1.30;;;;;;;;;;5083128;28;20027;-68
2024/03/10 02:29:18;;;;;;;3.13;1.70;;;;;;;;;;5107392;28;20438;-69
2024/03/10 02:48:09;;;;;;;6.70;1.70;;;;;;;;;;5095629;28;20038;-68
2024/03/10 02:50:34;;;;;;;4.57;2.20;;;;;;;;;;5094612;28;20031;-69
2024/03/10 02:53:00;;;;;;;4.70;2.22;;;;;;;;;;5112606;28;20047;-68
2024/03/10 02:55:26;;;;;;;4.78;2.05;;;;;;;;;;5099084;28;20441;-70
2024/03/10 02:57:52;;;;;;;4.55;2.15;;;;;;;;;;5093531;28;20016;-67
2024/03/10 03:00:18;;;;;;;8.45;2.30;;;;;;;;;;5110611;28;20104;-70
2024/03/10 03:02:43;;;;;;;7.60;2.40;;;;;;;;;;5113865;28;20054;-69
2024/03/10 03:05:09;;;;;;;4.97;2.05;;;;;;;;;;5114629;28;20024;-68
2024/03/10 03:07:34;;;;;;;6.55;2.22;;;;;;;;;;5108531;28;20362;-66
2024/03/10 03:10:00;;;;;;;4.75;1.90;;;;;;;;;;5093954;28;20024;-67
2024/03/10 03:12:25;;;;;;;7.25;2.30;;;;;;;;;;5075510;28;20028;-67
2024/03/10 03:14:51;;;;;;;4.15;2.03;;;;;;;;;;5105894;28;20321;-67
2024/03/10 03:17:16;;;;;;;4.32;2.03;;;;;;;;;;5096618;28;20039;-66
2024/03/10 03:19:42;;;;;;;3.92;1.80;;;;;;;;;;5097716;28;20020;-67
2024/03/10 03:22:08;;;;;;;5.60;1.90;;;;;;;;;;5096428;28;20134;-68
2024/03/10 03:24:33;;;;;;;6.13;2.00;;;;;;;;;;5113028;28;20055;-68
2024/03/10 03:26:59;;;;;;;3.42;1.75;;;;;;;;;;5113368;28;20058;-69
2024/03/10 03:29:24;;;;;;;6.13;1.70;;;;;;;;;;5100679;28;20016;-70
2024/03/10 03:31:50;;;;;;;3.85;1.92;;;;;;;;;;5092480;28;20446;-70
2024/03/10 03:34:16;;;;;;;4.15;1.90;;;;;;;;;;5092325;28;20024;-69
2024/03/10 03:36:41;;;;;;;5.72;2.13;;;;;;;;;;5095414;28;20027;-68
2024/03/10 03:39:09;;;;;;;3.47;1.65;;;;;;;;;;5114096;28;20023;-70
2024/03/10 03:41:34;;;;;;;4.32;2.03;;;;;;;;;;5108121;28;20035;-70
2024/03/10 03:44:00;;;;;;;3.47;1.90;;;;;;;;;;5113466;28;20440;-70
2024/03/10 03:46:25;;;;;;;3.08;1.90;;;;;;;;;;5113149;28;20027;-70
2024/03/10 03:48:51;;;;;;;5.45;1.80;;;;;;;;;;5101392;28;20024;-71
2024/03/10 03:51:16;;;;;;;4.90;1.90;;;;;;;;;;5093717;28;20028;-69
2024/03/10 03:53:44;;;;;;;5.10;1.73;;;;;;;;;;5111901;28;20032;-71
2024/03/10 03:56:10;;;;;;;4.53;2.03;;;;;;;;;;5112954;28;20035;-68
2024/03/10 03:58:36;;;;;;;4.40;2.15;;;;;;;;;;5099739;28;20024;-66
2024/03/10 04:01:01;;;;;;;4.63;2.35;;;;;;;;;;5092410;28;20401;-66
2024/03/10 04:03:27;;;;;;;10.95;2.45;;;;;;;;;;5092737;28;20173;-68
2024/03/10 04:05:52;;;;;;;7.22;2.83;;;;;;;;;;5093597;28;20092;-70
2024/03/10 04:08:18;;;;;;;5.78;2.42;;;;;;;;;;5110974;28;20434;-67
2024/03/10 04:10:43;;;;;;;9.82;2.88;;;;;;;;;;5112841;28;20106;-66
2024/03/10 04:13:09;;;;;;;8.90;2.72;;;;;;;;;;5113126;28;20442;-72
2024/03/10 04:15:37;;;;;;;8.38;2.95;;;;;;;;;;5113193;28;20077;-72
2024/03/10 04:18:04;;;;;;;10.48;2.80;;;;;;;;;;5109730;28;20433;-69
2024/03/10 04:20:33;;;;;;;8.15;3.15;;;;;;;;;;5096669;28;20078;-70
2024/03/10 04:22:59;;;;;;;6.05;2.80;;;;;;;;;;5091669;28;20028;-69
2024/03/10 04:25:24;;;;;;;8.43;2.78;;;;;;;;;;5092376;28;20104;-67
2024/03/10 04:27:50;;;;;;;5.60;2.80;;;;;;;;;;5100623;28;20023;-69
2024/03/10 04:30:22;;;;;;;8.35;3.00;;;;;;;;;;5094941;28;20354;-68
2024/03/10 04:32:48;;;;;;;6.65;3.00;;;;;;;;;;5103684;28;20481;-70
2024/03/10 04:35:13;;;;;;;11.27;3.38;;;;;;;;;;5074765;28;20034;-66
2024/03/10 04:37:39;;;;;;;7.50;3.13;;;;;;;;;;5099030;28;20027;-70
2024/03/10 04:40:10;;;;;;;6.63;2.92;;;;;;;;;;5112622;28;20490;-69
2024/03/10 04:42:38;;;;;;;9.18;3.45;;;;;;;;;;5112519;28;20051;-70
2024/03/10 04:45:03;;;;;;;12.05;3.33;;;;;;;;;;5112179;28;20023;-70
2024/03/10 04:47:30;;;;;;;8.27;3.45;;;;;;;;;;5103886;28;20024;-69
2024/03/10 04:49:55;;;;;;;6.18;3.17;;;;;;;;;;5090639;28;20350;-69
2024/03/10 04:52:21;;;;;;;10.85;3.53;;;;;;;;;;5090588;28;20040;-69
2024/03/10 04:54:47;;;;;;;9.05;3.22;;;;;;;;;;5074629;28;20032;-69
2024/03/10 04:57:12;;;;;;;7.35;3.08;;;;;;;;;;5096028;28;20011;-68
2024/03/10 04:59:38;;;;;;;6.95;3.50;;;;;;;;;;5097612;28;20110;-70
2024/03/10 05:02:03;;;;;;;6.00;3.30;;;;;;;;;;5097129;28;20524;-67
2024/03/10 05:04:28;;;;;;;9.13;3.58;;;;;;;;;;5112330;28;20016;-69
2024/03/10 05:06:55;;;;;;;7.50;3.72;;;;;;;;;;5109445;28;20072;-68
2024/03/10 05:09:21;;;;;;;9.80;3.85;;;;;;;;;;5090804;28;20127;-68
2024/03/10 05:11:46;;;;;;;8.43;3.50;;;;;;;;;;5091358;28;20498;-66
2024/03/10 05:14:12;;;;;;;6.25;3.08;;;;;;;;;;5074589;28;20114;-69
2024/03/10 05:16:38;;;;;;;5.75;2.85;;;;;;;;;;5096087;28;20392;-70
2024/03/10 05:19:07;;;;;;;6.85;2.75;;;;;;;;;;5112258;28;20031;-70
2024/03/10 05:21:32;;;;;;;10.40;2.90;;;;;;;;;;5116478;28;20043;-71
2024/03/10 05:23:57;;;;;;;7.65;2.80;;;;;;;;;;5116353;28;20452;-70
2024/03/10 05:26:23;;;;;;;5.53;2.67;;;;;;;;;;5113765;28;20414;-65
2024/03/10 05:28:48;;;;;;;4.15;2.13;;;;;;;;;;5095574;28;20354;-65
2024/03/10 05:31:27;;;;;;;9.80;3.00;;;;;;;;;;5099267;28;20024;-67
2024/03/10 05:33:53;;;;;;;4.55;2.90;;;;;;;;;;5116428;28;20030;-68
2024/03/10 05:36:18;;;;;;;6.32;3.10;;;;;;;;;;5114044;28;20020;-70
2024/03/10 05:38:44;;;;;;;5.47;2.63;;;;;;;;;;5094844;28;20096;-69
2024/03/10 05:41:09;;;;;;;8.45;2.97;;;;;;;;;;5095778;28;20124;-70
2024/03/10 05:43:35;;;;;;;6.90;4.03;;;;;;;;;;5094955;28;20024;-63
2024/03/10 05:46:00;;;;;;;6.63;3.35;;;;;;;;;;5098181;28;20016;-65
2024/03/10 05:48:26;;;;;;;6.03;3.22;;;;;;;;;;5115640;28;20027;-64
2024/03/10 05:50:51;;;;;;;8.00;3.60;;;;;;;;;;5115958;28;20023;-63
2024/03/10 05:53:17;;;;;;;13.07;4.18;;;;;;;;;;5115775;28;20102;-62
2024/03/10 05:55:43;;;;;;;10.23;3.30;;;;;;;;;;5113955;28;20036;-63
2024/03/10 05:58:08;;;;;;;13.32;3.90;;;;;;;;;;5096715;28;20077;-62
2024/03/10 06:00:34;;;;;;;11.48;3.35;;;;;;;;;;5096699;28;20103;-69
2024/03/10 06:02:59;;;;;;;9.30;4.15;;;;;;;;;;5114944;28;20097;-66
2024/03/10 06:05:25;;;;;;;6.82;3.05;;;;;;;;;;5114462;28;20016;-67
2024/03/10 06:07:51;;;;;;;11.63;3.45;;;;;;;;;;5098315;28;20399;-67
2024/03/10 06:10:18;;;;;;;7.68;3.67;;;;;;;;;;5095364;28;20634;-67
2024/03/10 06:12:43;;;;;;;8.18;3.85;;;;;;;;;;5095071;28;20055;-67
2024/03/10 06:15:16;;;;;;;7.85;3.70;;;;;;;;;;5095828;28;20070;-66
2024/03/10 06:17:50;;;;;;;8.63;3.80;;;;;;;;;;5074606;28;20040;-68
2024/03/10 06:25:44;;;;;;;12.32;3.53;;;;;;;;;;5085353;28;20020;-67
2024/03/10 06:28:09;;;;;;;9.35;3.50;;;;;;;;;;5113644;28;20039;-67
2024/03/10 06:30:35;;;;;;;8.88;3.70;;;;;;;;;;5109216;28;20084;-67
2024/03/10 06:33:01;;;;;;;7.07;3.95;;;;;;;;;;5114451;28;20116;-64
2024/03/10 06:35:26;;;;;;;13.48;3.63;;;;;;;;;;5115025;28;20103;-67
2024/03/10 06:37:51;;;;;;;5.68;3.25;;;;;;;;;;5114723;28;20103;-66
2024/03/10 06:40:17;;;;;;;7.47;3.40;;;;;;;;;;5115481;28;20032;-73
2024/03/10 06:42:45;;;;;;;6.85;3.45;;;;;;;;;;5114393;28;20035;-66
2024/03/10 06:45:10;;;;;;;10.55;2.97;;;;;;;;;;5097598;28;20148;-67
2024/03/10 06:47:35;;;;;;;5.07;2.22;;;;;;;;;;5094194;28;20480;-68
2024/03/10 06:50:04;;;;;;;8.93;2.85;;;;;;;;;;5094204;28;20020;-67
2024/03/10 06:52:30;;;;;;;5.78;2.22;;;;;;;;;;5093378;28;20061;-66
2024/03/10 06:54:57;;;;;;;4.28;2.10;;;;;;;;;;5093719;28;20024;-67
2024/03/10 06:57:22;;;;;;;3.65;2.50;;;;;;;;;;5099479;28;20072;-66
2024/03/10 06:59:48;;;;;;;3.42;2.00;;;;;;;;;;5114659;27;20051;-66
2024/03/10 07:02:13;;;;;;;4.60;2.22;;;;;;;;;;5114025;28;20359;-67
2024/03/10 07:04:40;;;;;;;5.95;2.65;;;;;;;;;;5114203;28;20061;-67
2024/03/10 07:07:08;;;;;;;6.57;3.08;;;;;;;;;;5105681;28;20503;-67
2024/03/10 07:09:34;;;;;;;5.60;2.40;;;;;;;;;;5093997;28;20081;-67
2024/03/10 07:12:01;;;;;;;5.40;2.50;;;;;;;;;;5097378;28;20037;-66
2024/03/10 07:14:26;;;;;;;7.05;2.80;;;;;;;;;;5112596;28;20024;-67
2024/03/10 07:16:51;;;;;;;9.55;3.05;;;;;;;;;;5097857;28;20150;-65
2024/03/10 07:19:17;;;;;;;3.78;2.50;;;;;;;;;;5093936;28;20100;-65
2024/03/10 07:21:43;;;;;;;14.07;3.42;;;;;;;;;;5093470;28;20044;-66
2024/03/10 07:24:08;;;;;;;4.82;2.72;;;;;;;;;;5093227;28;20461;-66
2024/03/10 07:26:34;;;;;;;6.32;3.15;;;;;;;;;;5096206;28;20153;-67
2024/03/10 07:28:59;;;;;;;7.97;2.88;;;;;;;;;;5114303;27;20410;-66
2024/03/10 07:31:26;;;;;;;10.18;3.25;;;;;;;;;;5111835;28;20031;-66
2024/03/10 07:33:53;;;;;;;6.18;3.03;;;;;;;;;;5095664;27;20055;-67
2024/03/10 07:36:18;;;;;;;3.05;2.20;;;;;;;;;;5094002;28;20343;-67
2024/03/10 07:38:44;;;;;;;5.03;2.08;;;;;;;;;;5096904;28;20020;-68
2024/03/10 07:41:10;;;;;;;5.68;2.25;;;;;;;;;;5110638;28;20039;-67
2024/03/10 07:43:36;;;;;;;3.67;2.47;;;;;;;;;;5091902;28;20028;-68
2024/03/10 07:46:05;;;;;;;3.45;2.30;;;;;;;;;;5093118;28;20030;-69
2024/03/10 07:48:32;;;;;;;4.53;2.35;;;;;;;;;;5093009;28;20012;-65
2024/03/10 07:50:57;;;;;;;3.13;1.95;;;;;;;;;;5092533;28;20020;-66
2024/03/10 07:53:23;;;;;;;4.88;2.10;;;;;;;;;;5091582;28;20485;-67
2024/03/10 07:55:48;;;;;;;3.80;1.90;;;;;;;;;;5093716;28;20027;-67
2024/03/10 07:58:14;;;;;;;5.60;2.10;;;;;;;;;;5112588;28;20364;-65
2024/03/10 08:00:40;;;;;;;6.85;2.08;;;;;;;;;;5111955;28;20027;-78
2024/03/10 08:03:05;;;;;;;6.30;2.10;;;;;;;;;;5111716;28;20426;-67
2024/03/10 08:05:30;;;;;;;3.75;2.20;;;;;;;;;;5113263;28;20027;-67
2024/03/10 08:07:56;;;;;;;4.78;2.17;;;;;;;;;;5101194;28;20457;-65
2024/03/10 08:10:22;;;;;;;4.10;2.13;;;;;;;;;;5093979;28;20047;-66
2024/03/10 08:12:48;;;;;;;4.35;2.10;;;;;;;;;;5110230;28;20422;-67
2024/03/10 08:15:14;;;;;;;7.38;2.75;;;;;;;;;;5112878;28;20062;-68
2024/03/10 08:17:39;;;;;;;6.10;2.10;;;;;;;;;;5112811;28;20027;-67
2024/03/10 08:20:08;;;;;;;6.93;2.05;;;;;;;;;;5113220;28;20342;-68
2024/03/10 08:22:36;;;;;;;7.93;2.30;;;;;;;;;;5112885;28;20044;-67
2024/03/10 08:25:05;;;;;;;4.93;2.20;;;;;;;;;;5110971;28;20016;-67
2024/03/10 08:27:31;;;;;;;4.57;2.38;;;;;;;;;;5094713;28;20028;-67
2024/03/10 08:29:56;;;;;;;6.10;2.70;;;;;;;;;;5092133;28;20080;-63
2024/03/10 08:32:25;;;;;;;6.40;2.25;;;;;;;;;;5092160;28;20043;-68
2024/03/10 08:34:51;;;;;;;5.40;2.05;;;;;;;;;;5093252;28;20030;-68
2024/03/10 08:37:19;;;;;;;8.18;2.10;;;;;;;;;;5108530;28;20365;-65
2024/03/10 08:39:46;;;;;;;6.63;2.17;;;;;;;;;;5110616;28;20016;-73
2024/03/10 08:42:15;;;;;;;4.75;2.58;;;;;;;;;;5094835;28;20047;-67
2024/03/10 08:44:41;;;;;;;7.32;2.28;;;;;;;;;;5092803;28;20025;-67
2024/03/10 08:47:07;;;;;;;5.88;2.08;;;;;;;;;;5092021;28;20022;-67
2024/03/10 08:49:33;;;;;;;3.95;2.40;;;;;;;;;;5092144;28;20331;-63
2024/03/10 08:51:59;;;;;;;4.20;2.03;;;;;;;;;;5092365;28;20078;-66
2024/03/10 08:54:24;;;;;;;3.88;1.70;;;;;;;;;;5094910;28;20071;-64
2024/03/10 08:56:49;;;;;;;3.63;1.90;;;;;;;;;;5099602;28;20465;-66
2024/03/10 08:59:15;;;;;;;11.30;1.90;;;;;;;;;;5096121;28;20051;-65
2024/03/10 09:01:44;;;;;;;6.63;1.65;;;;;;;;;;5096652;28;20028;-64
2024/03/10 09:04:10;;;;;;;6.97;2.53;;;;;;;;;;5099114;28;20015;-64
2024/03/10 09:06:35;;;;;;;16.30;2.20;;;;;;;;;;5116279;28;20100;-65
2024/03/10 09:09:02;;;;;;;4.85;1.90;;;;;;;;;;5114711;28;20042;-66
2024/03/10 09:11:30;;;;;;;6.75;2.05;;;;;;;;;;5100326;28;20039;-66
2024/03/10 09:13:55;;;;;;;4.20;1.80;;;;;;;;;;5097949;28;20019;-63
2024/03/10 09:16:39;;;;;;;4.28;2.10;;;;;;;;;;5112334;28;20024;-65
2024/03/10 09:19:05;;;;;;;4.00;2.05;;;;;;;;;;5116286;28;20024;-67
2024/03/10 09:21:33;;;;;;;5.80;2.05;;;;;;;;;;5116502;28;20314;-65
2024/03/10 09:23:59;;;;;;;3.25;1.80;;;;;;;;;;5115021;28;20027;-62
2024/03/10 09:26:25;;;;;;;3.75;1.95;;;;;;;;;;5098659;28;20358;-68
2024/03/10 09:28:50;;;;;;;3.40;2.00;;;;;;;;;;5095719;28;20112;-64
2024/03/10 09:31:16;;;;;;;4.25;2.03;;;;;;;;;;5096170;28;20024;-65
2024/03/10 09:33:44;;;;;;;4.60;2.17;;;;;;;;;;5097242;28;20020;-64
2024/03/10 09:36:11;;;;;;;3.33;2.15;;;;;;;;;;5105737;28;20080;-64
2024/03/10 09:38:36;;;;;;;3.17;2.30;;;;;;;;;;5096316;28;20451;-65
2024/03/10 09:41:05;;;;;;;6.32;2.33;;;;;;;;;;5112071;27;20056;-64
2024/03/10 09:43:33;;;;;;;4.20;2.03;;;;;;;;;;5115826;28;20464;-64
2024/03/10 09:45:59;;;;;;;4.65;2.40;;;;;;;;;;5111802;28;20027;-66
2024/03/10 09:48:25;;;;;;;4.35;2.00;;;;;;;;;;5115330;27;20025;-66
2024/03/10 09:50:51;;;;;;;6.03;2.20;;;;;;;;;;5115213;28;20043;-65
2024/03/10 09:53:17;;;;;;;3.95;2.00;;;;;;;;;;5114544;28;20058;-65
2024/03/10 09:55:43;;;;;;;4.18;1.75;;;;;;;;;;5099849;28;20043;-64
2024/03/10 09:58:13;;;;;;;3.38;1.70;;;;;;;;;;5111736;28;20019;-63
2024/03/10 10:00:39;;;;;;;4.28;1.92;;;;;;;;;;5096014;28;20089;-66
2024/03/10 10:03:07;;;;;;;5.85;2.05;;;;;;;;;;5074723;28;20469;-65
2024/03/10 10:05:38;;;;;;;5.03;1.65;;;;;;;;;;5074044;28;20466;-63
2024/03/10 10:08:10;;;;;;;3.33;1.60;;;;;;;;;;5080624;28;20035;-65
2024/03/10 10:10:58;;;;;;;4.47;2.00;;;;;;;;;;5094987;28;20027;-63
2024/03/10 10:13:24;;;;;;;3.25;1.60;;;;;;;;;;5095955;28;20376;-65
2024/03/10 10:15:52;;;;;;;2.58;1.90;;;;;;;;;;5114193;28;20056;-66
2024/03/10 10:18:18;;;;;;;5.60;2.25;;;;;;;;;;5115291;28;20061;-65
2024/03/10 10:20:47;;;;;;;3.10;1.60;;;;;;;;;;5109693;28;20082;-64
2024/03/10 10:23:13;;;;;;;3.88;1.63;;;;;;;;;;5098220;28;20165;-66
2024/03/10 10:25:42;;;;;;;4.55;1.50;;;;;;;;;;5115024;28;20028;-64
2024/03/10 10:28:12;;;;;;;3.30;1.67;;;;;;;;;;5114961;28;20080;-65
2024/03/10 10:30:40;;;;;;;3.25;1.52;;;;;;;;;;5115401;28;20100;-65
2024/03/10 10:33:06;;;;;;;4.88;1.95;;;;;;;;;;5113315;28;20165;-65
2024/03/10 10:35:38;;;;;;;4.15;1.88;;;;;;;;;;5106015;28;20099;-64
2024/03/10 10:38:11;;;;;;;6.60;1.83;;;;;;;;;;5110091;28;20446;-61
2024/03/10 10:40:53;;;;;;;5.63;1.73;;;;;;;;;;5094959;28;20438;-66
2024/03/10 10:43:20;;;;;;;4.60;1.50;;;;;;;;;;5095200;28;20103;-66
2024/03/10 10:45:48;;;;;;;2.40;1.60;;;;;;;;;;5112107;28;20016;-66
2024/03/10 10:48:16;;;;;;;2.95;1.80;;;;;;;;;;5094908;28;20083;-65
2024/03/10 10:50:44;;;;;;;3.20;1.73;;;;;;;;;;5094457;28;20439;-65
2024/03/10 10:53:11;;;;;;;5.25;1.52;;;;;;;;;;5101446;28;20586;-67
2024/03/10 10:55:40;;;;;;;7.07;1.80;;;;;;;;;;5115064;28;20089;-64
2024/03/10 10:58:06;;;;;;;2.47;1.27;;;;;;;;;;5107646;28;20469;-65
2024/03/10 11:00:32;;;;;;;4.03;1.42;;;;;;;;;;5102686;28;20030;-66
2024/03/10 11:03:16;;;;;;;1.80;1.17;;;;;;;;;;5114418;28;20040;-64
2024/03/10 11:06:00;;;;;;;2.10;1.40;;;;;;;;;;5113576;28;20027;-65
2024/03/10 11:08:26;;;;;;;2.53;1.40;;;;;;;;;;5113124;28;20042;-66
2024/03/10 11:10:52;;;;;;;3.47;1.30;;;;;;;;;;5114548;28;20019;-62
2024/03/10 11:13:17;;;;;;;3.13;1.27;;;;;;;;;;5114080;28;20098;-65
2024/03/10 11:15:44;;;;;;;4.13;1.85;;;;;;;;;;5111475;28;20116;-64
2024/03/10 11:18:22;;;;;;;3.75;1.58;;;;;;;;;;5085922;28;20016;-66
2024/03/10 11:20:48;;;;;;;2.45;1.70;;;;;;;;;;5114314;28;20114;-65
2024/03/10 11:23:15;;;;;;;3.33;1.55;;;;;;;;;;5100981;28;20043;-65
2024/03/10 11:25:50;;;;;;;2.03;1.38;;;;;;;;;;5093652;28;20080;-64
2024/03/10 11:28:19;;;;;;;3.30;1.30;;;;;;;;;;5093890;28;20031;-65
2024/03/10 11:30:44;;;;;;;3.60;1.80;;;;;;;;;;5093589;28;20320;-66
2024/03/10 11:33:12;;;;;;;4.72;2.20;;;;;;;;;;5093330;28;20035;-63
2024/03/10 11:35:40;;;;;;;3.38;1.40;;;;;;;;;;5094257;28;20024;-65
2024/03/10 11:38:09;;;;;;;5.32;1.60;;;;;;;;;;5093873;28;20028;-65
2024/03/10 11:40:35;;;;;;;5.47;1.75;;;;;;;;;;5093498;28;20031;-66
2024/03/10 11:43:01;;;;;;;3.97;1.20;;;;;;;;;;5093068;28;20032;-66
2024/03/10 11:45:27;;;;;;;10.48;2.08;;;;;;;;;;5093059;28;20916;-65
2024/03/10 11:47:58;;;;;;;6.13;1.45;;;;;;;;;;5093000;28;20016;-66
2024/03/10 11:50:25;;;;;;;1.60;1.13;;;;;;;;;;5105244;28;20024;-67
2024/03/10 11:52:50;;;;;;;4.60;2.40;;;;;;;;;;5113349;28;20075;-65
2024/03/10 11:55:19;;;;;;;2.83;1.70;;;;;;;;;;5097333;28;20065;-64
2024/03/10 11:57:44;;;;;;;7.85;1.58;;;;;;;;;;5093112;28;20027;-65
2024/03/10 12:00:15;;;;;;;4.43;1.67;;;;;;;;;;5092856;28;20028;-65
2024/03/10 12:02:41;;;;;;;5.50;1.50;;;;;;;;;;5092978;28;20398;-65
2024/03/10 12:05:09;;;;;;;7.50;1.50;;;;;;;;;;5105226;28;20034;-64
2024/03/10 12:07:35;;;;;;;3.50;1.33;;;;;;;;;;5092845;28;20082;-65
2024/03/10 12:10:01;;;;;;;6.18;1.23;;;;;;;;;;5093081;28;20028;-66
2024/03/10 12:12:30;;;;;;;3.80;1.60;;;;;;;;;;5096190;28;20026;-66
2024/03/10 12:14:56;;;;;;;4.82;1.40;;;;;;;;;;5106469;28;20023;-64
2024/03/10 12:17:22;;;;;;;4.65;1.65;;;;;;;;;;5112899;28;20100;-65
2024/03/10 12:19:47;;;;;;;6.00;1.27;;;;;;;;;;5099307;28;20422;-65
2024/03/10 12:22:13;;;;;;;11.63;1.80;;;;;;;;;;5090957;28;20032;-66
2024/03/10 12:24:39;;;;;;;8.82;1.75;;;;;;;;;;5091982;28;20024;-64
2024/03/10 12:27:05;;;;;;;4.00;1.40;;;;;;;;;;5092934;28;20016;-65
2024/03/10 12:29:30;;;;;;;11.35;1.52;;;;;;;;;;5092048;28;20035;-64
2024/03/10 12:31:56;;;;;;;5.10;1.45;;;;;;;;;;5092854;28;20039;-66
2024/03/10 12:34:21;;;;;;;5.43;1.33;;;;;;;;;;5111872;28;20011;-64
2024/03/10 12:36:48;;;;;;;2.15;1.30;;;;;;;;;;5112883;28;20024;-64
2024/03/10 12:39:14;;;;;;;3.60;1.38;;;;;;;;;;5111638;28;20393;-64
2024/03/10 12:41:39;;;;;;;5.97;1.25;;;;;;;;;;5112659;28;20036;-64
2024/03/10 12:44:06;;;;;;;6.18;1.23;;;;;;;;;;5112990;28;20084;-64
2024/03/10 12:46:33;;;;;;;1.65;1.00;;;;;;;;;;5110882;28;20016;-65
2024/03/10 12:48:59;;;;;;;3.38;1.20;;;;;;;;;;5093872;28;20024;-65
2024/03/10 12:51:25;;;;;;;3.03;1.27;;;;;;;;;;5100781;28;20486;-63
2024/03/10 12:53:51;;;;;;;3.33;1.77;;;;;;;;;;5112745;28;20131;-64
2024/03/10 12:56:16;;;;;;;5.32;1.13;;;;;;;;;;5112508;28;20027;-63
2024/03/10 12:58:43;;;;;;;4.05;1.23;;;;;;;;;;5112374;28;20051;-64
2024/03/10 13:01:09;;;;;;;9.07;1.48;;;;;;;;;;5110665;28;20449;-65
2024/03/10 13:03:35;;;;;;;5.68;1.33;;;;;;;;;;5094668;28;20028;-64
2024/03/10 13:06:03;;;;;;;1.88;1.35;;;;;;;;;;5091075;28;20061;-64
2024/03/10 13:08:29;;;;;;;3.40;1.17;;;;;;;;;;5092068;28;20419;-64
2024/03/10 13:10:54;;;;;;;4.93;1.25;;;;;;;;;;5111117;28;20036;-64
2024/03/10 13:13:20;;;;;;;6.72;1.80;;;;;;;;;;5112726;28;20415;-65
2024/03/10 13:15:45;;;;;;;4.35;1.38;;;;;;;;;;5111702;28;20031;-65
2024/03/10 13:18:14;;;;;;;8.40;1.77;;;;;;;;;;5095462;28;20273;-59
2024/03/10 13:20:40;;;;;;;4.47;1.10;;;;;;;;;;5092184;28;20024;-64
2024/03/10 13:23:06;;;;;;;3.35;1.60;;;;;;;;;;5092371;28;20036;-65
2024/03/10 13:25:32;;;;;;;1.27;0.63;;;;;;;;;;5091467;28;20520;-65
2024/03/10 13:27:57;;;;;;;2.22;1.10;;;;;;;;;;5103123;28;20027;-65
2024/03/10 13:30:23;;;;;;;2.83;0.95;;;;;;;;;;5111002;28;20456;-65
2024/03/10 13:32:48;;;;;;;4.53;0.95;;;;;;;;;;5097043;28;20383;-65
2024/03/10 13:35:14;;;;;;;2.92;0.85;;;;;;;;;;5110471;28;20369;-64
2024/03/10 13:37:39;;;;;;;2.72;0.80;;;;;;;;;;5111890;28;20080;-65
2024/03/10 13:40:05;;;;;;;2.22;1.02;;;;;;;;;;5111835;28;20098;-65
2024/03/10 13:42:32;;;;;;;2.67;1.15;;;;;;;;;;5115591;28;20042;-66
2024/03/10 13:44:57;;;;;;;2.85;1.08;;;;;;;;;;5111705;28;20011;-66
2024/03/10 13:47:23;;;;;;;3.28;0.90;;;;;;;;;;5095283;28;20020;-64
2024/03/10 13:49:48;;;;;;;2.45;1.10;;;;;;;;;;5094349;28;20828;-64
2024/03/10 13:52:17;;;;;;;2.72;1.20;;;;;;;;;;5095350;28;20374;-60
2024/03/10 13:54:46;;;;;;;3.15;1.27;;;;;;;;;;5095380;28;20081;-65
2024/03/10 13:57:12;;;;;;;5.28;1.40;;;;;;;;;;5095748;28;20402;-63
2024/03/10 13:59:39;;;;;;;6.28;1.63;;;;;;;;;;5096598;28;20020;-64
2024/03/10 14:02:05;;;;;;;6.05;1.52;;;;;;;;;;5113604;28;20050;-65
2024/03/10 14:04:32;;;;;;;6.28;1.42;;;;;;;;;;5097786;27;20023;-66
2024/03/10 14:06:58;;;;;;;2.70;1.40;;;;;;;;;;5115541;28;20441;-66
2024/03/10 14:09:23;;;;;;;3.65;1.40;;;;;;;;;;5115332;28;20030;-66
2024/03/10 14:11:48;;;;;;;2.65;1.20;;;;;;;;;;5115513;28;20035;-64
2024/03/10 14:14:14;;;;;;;3.38;1.33;;;;;;;;;;5114280;28;20499;-65
2024/03/10 14:16:39;;;;;;;3.83;1.48;;;;;;;;;;5095820;28;20051;-65
2024/03/10 14:19:06;;;;;;;4.75;1.20;;;;;;;;;;5094645;28;20371;-64
2024/03/10 14:21:31;;;;;;;3.83;1.38;;;;;;;;;;5106655;28;20042;-65
2024/03/10 14:23:57;;;;;;;6.45;1.35;;;;;;;;;;5114773;27;20023;-64
2024/03/10 14:26:23;;;;;;;2.50;1.10;;;;;;;;;;5114952;28;20415;-64
2024/03/10 14:28:48;;;;;;;1.88;1.10;;;;;;;;;;5113334;28;20079;-66
2024/03/10 14:31:14;;;;;;;3.20;1.30;;;;;;;;;;5097242;28;20028;-65
2024/03/10 14:33:40;;;;;;;4.25;1.52;;;;;;;;;;5094622;28;20314;-65
2024/03/10 14:36:08;;;;;;;2.60;1.55;;;;;;;;;;5094413;28;20028;-64
2024/03/10 14:38:33;;;;;;;2.25;1.40;;;;;;;;;;5097906;28;20100;-65
2024/03/10 14:40:59;;;;;;;6.18;1.70;;;;;;;;;;5114996;28;20497;-64
2024/03/10 14:43:25;;;;;;;3.30;1.40;;;;;;;;;;5112875;28;20037;-65
2024/03/10 14:45:51;;;;;;;3.92;1.25;;;;;;;;;;5097564;28;20032;-65
2024/03/10 14:48:17;;;;;;;4.32;1.73;;;;;;;;;;5094855;28;20020;-62
2024/03/10 14:50:42;;;;;;;3.00;1.60;;;;;;;;;;5094837;28;20024;-66
2024/03/10 14:53:08;;;;;;;2.85;1.70;;;;;;;;;;5093948;28;20044;-65
2024/03/10 14:55:34;;;;;;;2.95;1.40;;;;;;;;;;5093888;28;20464;-66
2024/03/10 14:58:04;;;;;;;5.55;1.40;;;;;;;;;;5108616;28;20061;-64
2024/03/10 15:00:33;;;;;;;3.42;1.35;;;;;;;;;;5114781;27;20059;-65